Time;durP1;ratioP1;P1;durP2;ratioP2;P2;SDS_P1;SDS_P2;PMS_P1;PMS_P2;Temp;Humidity;BMP_temperature;BMP_pressure;BME280_temperature;BME280_humidity;BME280_pressure;Samples;Min_cycle;Max_cycle;Signal;HPM_P1;HPM_P2
2022/06/16 00:00:28;;;;;;;8.82;3.00;;;;;;;-148.88;64.61;75789.41;4973781;28;20023;-85
2022/06/16 00:02:53;;;;;;;5.60;3.30;;;;;;;-148.88;64.25;75811.75;4975220;28;20045;-84
2022/06/16 00:05:21;;;;;;;7.93;3.67;;;;;;;-148.88;67.26;75868.63;4958056;28;20394;-84
2022/06/16 00:07:47;;;;;;;5.57;2.88;;;;;;;-148.88;67.76;75907.22;4976652;28;20153;-85
2022/06/16 00:10:14;;;;;;;7.18;3.13;;;;;;;-148.88;66.98;75931.59;4958288;28;20502;-85
2022/06/16 00:12:40;;;;;;;7.45;3.70;;;;;;;-148.88;68.47;75943.78;4974914;28;20113;-85
2022/06/16 00:15:09;;;;;;;6.15;3.20;;;;;;;-148.88;68.23;75890.97;4974896;28;20110;-85
2022/06/16 00:17:34;;;;;;;5.47;3.60;;;;;;;-148.88;68.37;75874.72;4974721;28;20401;-85
2022/06/16 00:20:01;;;;;;;10.63;3.75;;;;;;;-148.88;68.79;75895.03;4974549;28;20026;-85
2022/06/16 00:22:27;;;;;;;5.50;3.72;;;;;;;-148.88;71.05;75921.44;4974688;28;20177;-85
2022/06/16 00:24:53;;;;;;;5.68;3.45;;;;;;;-148.88;71.18;75917.38;4974365;28;20023;-85
2022/06/16 00:27:18;;;;;;;6.57;3.33;;;;;;;-148.88;71.16;75895.03;4973137;28;20027;-85
2022/06/16 00:29:44;;;;;;;7.55;3.55;;;;;;;-148.88;70.45;75878.78;4974747;28;20084;-85
2022/06/16 00:32:09;;;;;;;8.13;3.50;;;;;;;-148.88;69.31;75878.78;4974204;28;20410;-85
2022/06/16 00:34:34;;;;;;;6.53;3.42;;;;;;;-148.88;69.49;75866.59;4974682;28;20039;-85
2022/06/16 00:37:00;;;;;;;6.60;3.22;;;;;;;-148.88;70.15;75850.34;4974543;28;20046;-84
2022/06/16 00:39:25;;;;;;;7.07;3.97;;;;;;;-148.88;69.51;75866.59;4974973;28;20113;-84
2022/06/16 00:41:50;;;;;;;6.25;3.70;;;;;;;-148.88;71.33;75878.78;4957534;28;20042;-85
2022/06/16 00:44:37;;;;;;;7.97;3.58;;;;;;;-148.88;71.55;75882.84;4975378;28;20114;-85
2022/06/16 00:47:03;;;;;;;7.22;3.25;;;;;;;-148.88;71.58;75899.09;4975969;28;20033;-85
2022/06/16 00:49:29;;;;;;;8.38;4.07;;;;;;;-148.88;72.50;75935.66;4974719;28;20392;-84
2022/06/16 00:51:58;;;;;;;5.05;3.53;;;;;;;-148.88;72.90;75947.84;4974702;28;20018;-85
2022/06/16 00:54:31;;;;;;;6.20;3.40;;;;;;;-148.88;73.63;75960.03;4974468;28;20026;-84
2022/06/16 00:57:01;;;;;;;6.07;3.67;;;;;;;-148.88;74.04;75955.97;4973926;28;20026;-84
2022/06/16 00:59:27;;;;;;;5.18;3.50;;;;;;;-148.88;73.33;75921.44;4974559;28;20034;-85
2022/06/16 01:01:52;;;;;;;7.22;3.45;;;;;;;-148.88;73.10;75911.28;4974265;28;20053;-85
2022/06/16 01:07:03;;;;;;;;;;;;;;;-148.88;72.38;75901.13;4978435;28;20122;-85
2022/06/16 01:09:31;;;;;;;8.13;3.85;;;;;;;-148.88;72.72;75911.28;4978003;28;20415;-84
2022/06/16 01:15:00;;;;;;;7.55;4.25;;;;;;;-148.88;75.18;75923.47;4977640;28;20118;-85
2022/06/16 01:17:55;;;;;;;8.27;3.95;;;;;;;-148.88;74.66;75941.75;4978019;28;20027;-85
2022/06/16 01:20:44;;;;;;;8.98;4.28;;;;;;;-148.88;76.46;75960.03;4977967;28;20030;-85
2022/06/16 01:23:52;;;;;;;8.10;4.32;;;;;;;-148.88;77.61;75982.38;4978708;28;20477;-85
2022/06/16 01:26:32;;;;;;;10.00;4.68;;;;;;;-148.88;77.58;75976.28;4977728;28;20365;-84
2022/06/16 01:29:21;;;;;;;5.65;3.58;;;;;;;-148.88;76.32;75964.09;4977479;28;20425;-85
2022/06/16 01:32:11;;;;;;;7.25;3.78;;;;;;;-148.88;74.50;75962.06;4976972;28;20537;-85
2022/06/16 01:35:01;;;;;;;6.00;3.28;;;;;;;-148.88;73.97;75951.91;4976951;28;20417;-85
2022/06/16 01:38:07;;;;;;;13.45;3.80;;;;;;;-148.88;74.44;75962.06;4977093;28;20062;-85
2022/06/16 01:40:56;;;;;;;6.03;3.75;;;;;;;-148.88;75.43;75955.97;4969560;28;20094;-84
2022/06/16 01:43:32;;;;;;;5.97;3.90;;;;;;;-148.88;76.66;75982.38;4977092;28;20046;-84
2022/06/16 01:46:07;;;;;;;7.35;4.05;;;;;;;-148.88;77.51;76012.84;4977226;28;20034;-85
2022/06/16 01:48:35;;;;;;;7.68;4.15;;;;;;;-148.88;77.52;76027.06;4977166;28;20484;-85
2022/06/16 01:51:31;;;;;;;10.68;4.60;;;;;;;-148.88;79.46;76049.41;4976949;28;20034;-84
2022/06/16 01:54:02;;;;;;;8.82;4.32;;;;;;;-148.88;79.66;76055.50;4976111;28;20026;-84
2022/06/16 01:57:01;;;;;;;7.63;4.40;;;;;;;-148.88;79.04;76053.47;4959745;28;20516;-84
2022/06/16 01:59:33;;;;;;;7.30;4.43;;;;;;;-148.88;79.58;76041.28;4973428;28;20070;-84
2022/06/16 02:02:05;;;;;;;6.10;4.38;;;;;;;-148.88;79.36;76029.09;4978528;28;20026;-84
2022/06/16 02:04:41;;;;;;;8.10;4.25;;;;;;;-148.88;78.30;75992.53;4977227;28;20026;-84
2022/06/16 02:07:14;;;;;;;5.95;4.10;;;;;;;-148.88;78.18;75968.16;4977263;28;20466;-84
2022/06/16 02:09:44;;;;;;;6.93;4.05;;;;;;;-148.88;77.71;75955.97;4977231;28;20054;-84
2022/06/16 02:12:55;;;;;;;7.05;4.25;;;;;;;-148.88;78.33;75947.84;4977686;28;20029;-84
2022/06/16 02:15:24;;;;;;;6.28;4.10;;;;;;;-148.88;79.13;75960.03;4976869;28;20114;-84
2022/06/16 02:17:50;;;;;;;7.32;4.20;;;;;;;-148.88;79.71;75988.47;4975861;28;20046;-85
2022/06/16 02:20:16;;;;;;;8.32;4.00;;;;;;;-148.88;80.03;75984.41;4976119;28;20023;-85
2022/06/16 02:22:41;;;;;;;7.68;3.80;;;;;;;-148.88;81.57;76020.97;4976977;28;20544;-84
2022/06/16 02:25:07;;;;;;;5.85;3.72;;;;;;;-148.88;81.69;76025.03;4976335;28;20482;-85
2022/06/16 02:27:32;;;;;;;8.05;4.60;;;;;;;-148.88;81.24;76045.34;4976373;28;20077;-84
2022/06/16 02:29:57;;;;;;;7.63;4.25;;;;;;;-148.88;81.04;76045.34;4976207;28;20477;-84
2022/06/16 02:33:04;;;;;;;7.78;4.35;;;;;;;-148.88;81.14;76045.34;4976329;28;20042;-84
2022/06/16 02:35:48;;;;;;;7.88;4.65;;;;;;;-148.88;81.16;76059.56;4916637;29;20164;-84
2022/06/16 02:38:16;;;;;;;6.45;4.45;;;;;;;-148.88;81.01;76049.41;4974326;28;20477;-85
2022/06/16 02:41:18;;;;;;;9.75;4.80;;;;;;;-148.88;81.60;76065.66;4977365;28;20034;-85
2022/06/16 02:44:10;;;;;;;8.10;4.95;;;;;;;-148.88;83.34;76094.09;4976388;28;20015;-85
2022/06/16 02:46:55;;;;;;;9.57;5.22;;;;;;;-148.88;84.34;76092.06;4976253;28;20385;-85
2022/06/16 02:49:39;;;;;;;9.25;4.88;;;;;;;-148.88;85.36;76106.28;4976067;28;20034;-85
2022/06/16 02:52:28;;;;;;;9.95;5.40;;;;;;;-148.88;86.30;76100.19;4975671;28;20053;-84
2022/06/16 02:55:02;;;;;;;8.05;5.15;;;;;;;-148.88;85.93;76088.00;4975924;28;20031;-84
2022/06/16 02:57:34;;;;;;;9.00;5.88;;;;;;;-148.88;86.05;76081.91;4975659;28;20026;-85
2022/06/16 03:00:07;;;;;;;8.88;4.95;;;;;;;-148.88;85.44;76075.81;4975439;28;20085;-84
2022/06/16 03:02:34;;;;;;;;;;;;;;;-148.88;85.59;76081.91;4975889;28;20027;-84
2022/06/16 03:05:00;;;;;;;9.38;5.22;;;;;;;-148.88;86.87;76102.22;4975346;28;19917;-84
2022/06/16 03:07:28;;;;;;;8.75;5.40;;;;;;;-148.88;86.13;76092.06;4974051;28;20023;-85
2022/06/16 03:09:54;;;;;;;7.60;4.50;;;;;;;-148.88;85.35;76073.78;4975473;28;20106;-84
2022/06/16 03:12:19;;;;;;;10.25;5.43;;;;;;;-148.88;85.56;76069.72;4975498;28;20101;-85
2022/06/16 03:14:45;;;;;;;8.88;5.53;;;;;;;-148.88;86.35;76096.13;4974820;28;20441;-84
2022/06/16 03:17:11;;;;;;;10.38;5.68;;;;;;;-148.88;87.21;76108.31;4976910;28;20109;-87
2022/06/16 03:19:37;;;;;;;8.55;5.05;;;;;;;-148.88;87.30;76110.34;4976346;28;20027;-86
2022/06/16 03:22:04;;;;;;;8.13;4.97;;;;;;;-148.88;86.96;76112.41;4975453;28;20085;-84
2022/06/16 03:24:29;;;;;;;9.85;5.50;;;;;;;-148.88;86.86;76104.25;4975344;28;20437;-84
2022/06/16 03:26:55;;;;;;;11.90;5.82;;;;;;;-148.88;87.33;76106.28;4976004;28;20548;-85
2022/06/16 03:29:20;;;;;;;8.02;5.82;;;;;;;-148.88;88.40;76122.56;4976034;28;20110;-84
2022/06/16 03:31:45;;;;;;;9.57;5.90;;;;;;;-148.88;88.60;76126.59;5030054;23;20084;-86
2022/06/16 03:34:11;;;;;;;9.45;5.20;;;;;;;-148.88;88.66;76128.66;4978681;28;20034;-87
2022/06/16 03:36:37;;;;;;;10.90;5.78;;;;;;;-148.88;88.54;76138.81;4980961;28;20026;-87
2022/06/16 03:39:04;;;;;;;9.30;4.80;;;;;;;-148.88;88.25;76142.88;4979921;28;20023;-88
2022/06/16 03:41:30;;;;;;;9.45;4.90;;;;;;;-148.88;87.81;76132.72;4980267;28;20034;-87
2022/06/16 03:43:56;;;;;;;12.60;5.30;;;;;;;-148.88;88.10;76142.88;5015805;28;20102;-86
2022/06/16 03:46:22;;;;;;;11.40;5.38;;;;;;;-148.88;88.95;76159.13;5015681;28;20461;-85
2022/06/16 03:48:47;;;;;;;12.60;5.30;;;;;;;-148.88;89.60;76159.13;5015895;28;20022;-85
2022/06/16 03:51:12;;;;;;;9.68;5.47;;;;;;;-148.88;90.31;76161.16;5018353;28;20477;-86
2022/06/16 03:53:38;;;;;;;10.02;5.45;;;;;;;-148.88;90.01;76165.22;4999855;28;20385;-86
2022/06/16 03:56:05;;;;;;;8.93;4.80;;;;;;;-148.88;89.84;76151.00;5017727;28;20026;-85
2022/06/16 03:58:31;;;;;;;8.23;5.07;;;;;;;-148.88;89.83;76140.84;5000239;28;20086;-85
2022/06/16 04:00:56;;;;;;;7.22;5.00;;;;;;;-148.88;89.80;76130.69;5000103;28;20053;-85
2022/06/16 04:06:06;;;;;;;8.77;4.75;;;;;;;-148.88;89.90;76118.47;5016198;28;20566;-85
2022/06/16 04:08:33;;;;;;;8.88;4.82;;;;;;;-148.88;90.49;76136.78;5017071;28;20029;-85
2022/06/16 04:10:59;;;;;;;11.70;4.95;;;;;;;-148.88;90.23;76130.69;5015553;28;20040;-85
2022/06/16 04:13:24;;;;;;;8.63;4.90;;;;;;;-148.88;91.25;76153.03;5016301;28;20029;-85
2022/06/16 04:15:51;;;;;;;13.43;5.20;;;;;;;-148.88;91.90;76165.22;5017281;28;20085;-86
2022/06/16 04:18:20;;;;;;;10.25;5.25;;;;;;;-148.88;91.90;76167.25;5017760;28;20099;-85
2022/06/16 04:20:46;;;;;;;8.55;4.40;;;;;;;-148.88;91.97;76167.25;5013774;28;20022;-85
2022/06/16 04:23:11;;;;;;;9.02;4.93;;;;;;;-148.88;91.88;76171.31;4997168;28;20030;-83
2022/06/16 04:25:37;;;;;;;7.88;4.45;;;;;;;-148.88;91.83;76167.25;5015464;28;20453;-85
2022/06/16 04:28:05;;;;;;;9.23;5.47;;;;;;;-148.88;92.07;76163.19;5017621;28;20437;-84
2022/06/16 04:30:31;;;;;;;10.63;4.93;;;;;;;-148.88;91.56;76163.19;4998814;28;20075;-85
2022/06/16 04:32:58;;;;;;;8.93;4.95;;;;;;;-148.88;91.70;76155.06;4998156;28;20065;-84
2022/06/16 04:35:25;;;;;;;8.63;4.47;;;;;;;-148.88;91.30;76136.78;4997282;28;20068;-85
2022/06/16 04:37:51;;;;;;;8.85;4.43;;;;;;;-148.88;90.78;76134.72;4997426;28;20025;-85
2022/06/16 04:40:17;;;;;;;8.77;4.18;;;;;;;-148.88;91.08;76128.66;5002940;28;20026;-85
2022/06/16 04:42:42;;;;;;;9.25;4.65;;;;;;;-148.88;91.44;76126.59;5005047;28;20045;-85
2022/06/16 04:45:10;;;;;;;9.73;4.63;;;;;;;-148.88;91.00;76134.72;5021666;28;20032;-85
2022/06/16 04:47:35;;;;;;;11.40;4.93;;;;;;;-148.88;91.40;76140.84;5020382;28;20029;-84
2022/06/16 04:50:01;;;;;;;9.25;4.70;;;;;;;-148.88;90.93;76138.81;5004073;28;20108;-84
2022/06/16 04:52:26;;;;;;;6.97;4.95;;;;;;;-148.88;91.44;76146.94;5005176;28;20036;-85
2022/06/16 04:54:51;;;;;;;7.72;4.88;;;;;;;-148.88;91.43;76148.97;5024901;28;20025;-85
2022/06/16 04:57:17;;;;;;;9.43;4.53;;;;;;;-148.88;91.78;76142.88;5025175;28;20101;-85
2022/06/16 04:59:43;;;;;;;9.27;5.07;;;;;;;-148.88;92.07;76130.69;5022609;28;20489;-85
2022/06/16 05:02:09;;;;;;;11.85;5.82;;;;;;;-148.88;92.00;76110.34;5021328;28;20029;-85
2022/06/16 05:04:35;;;;;;;7.13;4.53;;;;;;;-148.88;92.31;76100.19;5007336;28;20559;-84
2022/06/16 05:07:01;;;;;;;9.05;4.93;;;;;;;-148.88;91.85;76081.91;5005991;28;20503;-85
2022/06/16 05:09:26;;;;;;;7.05;4.10;;;;;;;-148.88;90.41;76073.78;5022707;28;20034;-86
2022/06/16 05:11:52;;;;;;;9.70;5.00;;;;;;;-148.88;90.08;76073.78;5023098;28;20022;-85
2022/06/16 05:14:17;;;;;;;6.13;4.30;;;;;;;-148.88;89.38;76059.56;5023494;28;20026;-87
2022/06/16 05:16:42;;;;;;;8.82;4.18;;;;;;;-148.88;89.02;76043.31;5021109;28;20026;-86
2022/06/16 05:19:07;;;;;;;11.18;4.30;;;;;;;-148.88;89.69;76041.28;5004665;28;20030;-85
2022/06/16 05:21:33;;;;;;;6.95;4.00;;;;;;;-148.88;89.04;76029.09;5021982;28;20408;-85
2022/06/16 05:23:58;;;;;;;10.52;4.43;;;;;;;-148.88;89.22;76023.00;5003786;28;20049;-86
2022/06/16 05:26:23;;;;;;;8.50;4.03;;;;;;;-148.88;89.37;76020.97;5021788;28;20057;-85
2022/06/16 05:28:49;;;;;;;5.00;3.58;;;;;;;-148.88;89.08;76008.78;5004996;28;20026;-85
2022/06/16 05:31:14;;;;;;;5.28;2.92;;;;;;;-148.88;88.29;75996.59;5006069;28;20022;-84
2022/06/16 05:33:39;;;;;;;9.32;3.10;;;;;;;-148.88;87.39;75990.50;5023527;28;20068;-83
2022/06/16 05:36:10;;;;;;;8.10;3.08;;;;;;;-148.88;85.85;75984.41;5022632;28;20022;-85
2022/06/16 05:38:35;;;;;;;6.20;3.03;;;;;;;-148.88;84.98;75988.47;5021436;28;20036;-85
2022/06/16 05:41:07;;;;;;;6.63;3.30;;;;;;;-148.88;84.88;75976.28;5022284;28;20022;-84
2022/06/16 05:43:34;;;;;;;6.80;3.00;;;;;;;-148.88;84.79;75968.16;5025553;28;20411;-86
2022/06/16 05:46:00;;;;;;;7.82;3.28;;;;;;;-148.88;84.41;75976.28;5025316;28;20030;-84
2022/06/16 05:48:25;;;;;;;5.78;3.42;;;;;;;-148.88;84.53;75968.16;5024045;28;20030;-84
2022/06/16 05:50:51;;;;;;;7.40;3.20;;;;;;;-148.88;84.49;75976.28;5020641;28;20036;-85
2022/06/16 05:53:16;;;;;;;7.15;3.38;;;;;;;-148.88;83.82;75970.19;4999878;28;20113;-86
2022/06/16 05:55:41;;;;;;;7.60;3.55;;;;;;;-148.88;84.29;75960.03;5002040;28;20021;-85
2022/06/16 05:58:07;;;;;;;5.53;3.08;;;;;;;-148.88;83.68;75962.06;5021336;28;20029;-84
2022/06/16 06:00:32;;;;;;;8.35;3.50;;;;;;;-148.88;83.63;75960.03;5002256;28;20145;-85
2022/06/16 06:02:58;;;;;;;7.53;3.42;;;;;;;-148.88;82.86;75964.09;5001710;28;20022;-85
2022/06/16 06:05:25;;;;;;;7.78;3.47;;;;;;;-148.88;83.54;75982.38;5016512;28;20028;-85
2022/06/16 06:18:47;;;;;;;5.47;2.97;;;;;;;-148.88;82.96;75972.22;5019171;28;20270;-83
2022/06/16 06:21:13;;;;;;;5.70;3.13;;;;;;;-148.88;81.59;75947.84;5021314;28;20093;-83
2022/06/16 06:23:38;;;;;;;8.45;3.47;;;;;;;-148.88;82.13;75923.47;5005260;28;20057;-84
2022/06/16 06:26:03;;;;;;;5.45;2.95;;;;;;;-148.88;80.84;75907.22;5005664;28;20033;-84
2022/06/16 06:28:28;;;;;;;8.13;2.78;;;;;;;-148.88;79.85;75893.00;5021855;28;20025;-84
2022/06/16 06:30:54;;;;;;;5.53;3.17;;;;;;;-148.88;80.50;75874.72;5004518;28;20034;-83
2022/06/16 06:33:19;;;;;;;5.20;2.83;;;;;;;-148.88;79.41;75874.72;5021845;28;20065;-84
2022/06/16 06:35:44;;;;;;;5.20;2.50;;;;;;;-148.88;78.75;75868.63;5021779;28;20057;-84
2022/06/16 06:38:10;;;;;;;4.13;2.30;;;;;;;-148.88;78.82;75870.66;5003870;28;20114;-84
2022/06/16 06:40:36;;;;;;;4.40;2.25;;;;;;;-148.88;79.58;75866.59;5004050;28;20029;-84
2022/06/16 06:43:03;;;;;;;4.72;2.22;;;;;;;-148.88;79.92;75866.59;5020511;28;20076;-84
2022/06/16 06:45:29;;;;;;;5.00;2.20;;;;;;;-148.88;77.53;75884.88;5021375;28;20021;-84
2022/06/16 06:47:55;;;;;;;6.25;2.20;;;;;;;-148.88;77.19;75890.97;5023103;28;20101;-84
2022/06/16 06:50:32;;;;;;;5.43;2.33;;;;;;;-148.88;77.13;75884.88;5022633;28;20030;-84
2022/06/16 06:52:58;;;;;;;5.13;2.20;;;;;;;-148.88;77.82;75884.88;5019539;28;20446;-83
2022/06/16 06:55:26;;;;;;;3.30;1.95;;;;;;;-148.88;77.22;75880.81;5016051;28;20124;-85
2022/06/16 06:57:53;;;;;;;4.68;2.10;;;;;;;-148.88;75.47;75882.84;4999235;28;20455;-85
2022/06/16 07:00:21;;;;;;;3.95;2.15;;;;;;;-148.88;77.11;75874.72;5016879;28;20022;-84
2022/06/16 07:02:46;;;;;;;5.78;2.35;;;;;;;-148.88;76.17;75862.53;5016543;28;20038;-83
2022/06/16 07:05:12;;;;;;;3.67;1.98;;;;;;;-148.88;75.59;75852.38;5000220;28;20025;-85
2022/06/16 07:07:37;;;;;;;4.60;2.17;;;;;;;-148.88;76.89;75842.22;5019632;28;20053;-84
2022/06/16 07:10:06;;;;;;;4.63;2.22;;;;;;;-148.88;73.99;75848.31;5003067;28;20018;-86
2022/06/16 07:12:34;;;;;;;4.63;2.08;;;;;;;-148.88;74.72;75846.28;5003306;28;20022;-85
2022/06/16 07:14:59;;;;;;;5.45;2.00;;;;;;;-148.88;73.84;75840.19;5003497;28;20449;-85
2022/06/16 07:17:25;;;;;;;6.95;2.63;;;;;;;-148.88;73.87;75838.16;5019274;28;20056;-85
2022/06/16 07:19:51;;;;;;;6.03;2.60;;;;;;;-148.88;73.17;75821.91;5003470;28;20026;-85
2022/06/16 07:22:17;;;;;;;5.00;2.03;;;;;;;-148.88;73.38;75825.97;5020664;28;20025;-85
2022/06/16 07:24:43;;;;;;;4.15;2.30;;;;;;;-148.88;72.53;75830.03;5003044;28;20024;-86
2022/06/16 07:27:09;;;;;;;3.38;2.03;;;;;;;-148.88;73.19;75828.00;5000797;28;20065;-86
2022/06/16 07:29:35;;;;;;;4.38;2.30;;;;;;;-148.88;71.97;75821.91;5020623;28;20033;-84
2022/06/16 07:32:01;;;;;;;5.35;2.10;;;;;;;-148.88;72.61;75813.78;5016294;28;20121;-87
2022/06/16 07:34:26;;;;;;;5.30;2.42;;;;;;;-148.88;72.10;75815.81;4998365;28;20468;-85
2022/06/16 07:36:55;;;;;;;4.57;2.10;;;;;;;-148.88;73.57;75805.66;5016094;28;20101;-86
2022/06/16 07:39:20;;;;;;;5.53;1.85;;;;;;;-148.88;71.88;75789.41;4998204;28;20120;-84
2022/06/16 07:41:46;;;;;;;6.78;2.40;;;;;;;-148.88;70.36;75789.41;5018513;28;20515;-85
2022/06/16 07:44:14;;;;;;;5.53;1.80;;;;;;;-148.88;72.02;75765.03;5016701;28;20025;-85
2022/06/16 07:46:42;;;;;;;3.97;2.00;;;;;;;-148.88;72.12;75744.72;5015218;28;20022;-84
2022/06/16 07:49:14;;;;;;;4.25;2.00;;;;;;;-148.88;71.50;75730.50;4998231;28;20404;-85
2022/06/16 07:51:40;;;;;;;3.35;2.05;;;;;;;-148.88;72.43;75724.41;5001374;28;20117;-85
2022/06/16 07:54:14;;;;;;;4.00;1.77;;;;;;;-148.88;70.69;75718.31;5001557;28;20111;-84
2022/06/16 07:56:40;;;;;;;4.85;1.90;;;;;;;-148.88;70.67;75714.25;5015407;28;20025;-85
2022/06/16 07:59:05;;;;;;;5.78;2.15;;;;;;;-148.88;70.76;75702.06;4996959;28;20349;-85
2022/06/16 08:01:30;;;;;;;4.57;1.70;;;;;;;-148.88;70.97;75691.91;5012082;28;20037;-85
2022/06/16 08:03:56;;;;;;;6.00;1.80;;;;;;;-148.88;70.73;75671.59;4997925;28;20120;-86
2022/06/16 08:06:26;;;;;;;3.58;1.77;;;;;;;-148.88;70.36;75663.47;4997893;28;20053;-84
2022/06/16 08:08:52;;;;;;;4.75;1.50;;;;;;;-148.88;67.48;75661.44;4999548;28;20089;-85
2022/06/16 08:14:01;;;;;;;;;;;;;;;-148.88;64.08;75635.03;5017387;28;20045;-85
2022/06/16 08:16:30;;;;;;;3.33;1.10;;;;;;;-148.88;64.86;75635.03;5018374;28;19918;-85
2022/06/16 08:18:56;;;;;;;2.10;1.20;;;;;;;-148.88;64.33;75622.84;5014621;28;20619;-88
2022/06/16 08:21:21;;;;;;;2.00;1.08;;;;;;;-148.88;63.63;75608.63;5001073;28;20048;-85
2022/06/16 08:23:49;;;;;;;3.85;1.40;;;;;;;-148.88;63.68;75608.63;5002651;28;20030;-84
2022/06/16 08:26:14;;;;;;;2.30;1.38;;;;;;;-148.88;64.58;75594.44;5000267;28;20018;-85
2022/06/16 08:28:51;;;;;;;5.95;1.10;;;;;;;-148.88;63.48;75578.19;5016571;28;20028;-85
2022/06/16 08:31:20;;;;;;;5.70;1.40;;;;;;;-148.88;64.01;75572.09;4999967;28;20025;-84
2022/06/16 08:33:46;;;;;;;2.80;1.27;;;;;;;-148.88;62.22;75570.03;5016952;28;20030;-84
2022/06/16 08:36:12;;;;;;;3.72;1.17;;;;;;;-148.88;62.05;75555.84;5016292;28;20033;-86
2022/06/16 08:38:37;;;;;;;3.45;1.30;;;;;;;-148.88;60.94;75557.88;5000338;28;20022;-84
2022/06/16 08:41:15;;;;;;;5.82;1.30;;;;;;;-148.88;59.25;75533.50;5015783;28;20029;-86
2022/06/16 08:44:03;;;;;;;4.55;1.25;;;;;;;-148.88;59.38;75529.44;5016455;28;20029;-87
2022/06/16 08:46:38;;;;;;;3.40;1.25;;;;;;;-148.88;62.42;75507.09;5015428;28;20400;-87
2022/06/16 08:49:18;;;;;;;4.85;1.30;;;;;;;-148.88;60.35;75533.50;5019179;28;20023;-86
2022/06/16 08:52:08;;;;;;;4.00;1.20;;;;;;;-148.88;60.03;75517.25;5016151;28;20030;-82
2022/06/16 08:55:20;;;;;;;3.55;1.00;;;;;;;-148.88;60.45;75490.84;5017134;28;20028;-83
2022/06/16 08:57:55;;;;;;;5.10;0.93;;;;;;;-148.88;57.53;75488.81;4939475;29;20031;-82
2022/06/16 09:00:30;;;;;;;2.92;0.85;;;;;;;-148.88;56.88;75480.69;4938056;29;20036;-85
2022/06/16 09:03:09;;;;;;;1.58;0.90;;;;;;;-148.88;57.23;75468.50;4987230;28;20037;-84
2022/06/16 09:05:49;;;;;;;2.22;1.08;;;;;;;-148.88;55.42;75454.28;5015918;28;20033;-84
2022/06/16 09:08:24;;;;;;;3.38;0.98;;;;;;;-148.88;57.63;75452.25;5016930;28;20100;-82
2022/06/16 09:11:10;;;;;;;3.45;0.80;;;;;;;-148.88;53.91;75440.06;5017210;28;20073;-82
2022/06/16 09:14:03;;;;;;;1.00;0.63;;;;;;;-148.88;54.14;75438.03;5018659;28;20049;-80
2022/06/16 09:16:39;;;;;;;2.72;0.80;;;;;;;-148.88;50.65;75431.94;5016782;28;20033;-82
2022/06/16 09:19:31;;;;;;;3.40;1.00;;;;;;;-148.88;56.36;75377.09;5000727;28;20034;-83
2022/06/16 09:22:05;;;;;;;2.53;0.82;;;;;;;-148.88;52.39;75362.88;5017038;28;20104;-82
2022/06/16 09:25:11;;;;;;;4.15;1.08;;;;;;;-148.88;51.20;75338.50;5001398;28;20029;-83
2022/06/16 09:27:45;;;;;;;3.70;0.90;;;;;;;-148.88;55.53;75318.19;5018709;28;20026;-82
2022/06/16 09:30:21;;;;;;;2.90;1.02;;;;;;;-148.88;52.40;75297.88;5018541;28;20032;-83
2022/06/16 09:33:00;;;;;;;3.03;0.77;;;;;;;-148.88;49.80;75291.78;5037753;23;20498;-83
2022/06/16 09:35:33;;;;;;;4.90;1.25;;;;;;;-148.88;51.23;75289.75;4997894;28;20034;-83
2022/06/16 09:38:02;;;;;;;;;;;;;;;-148.88;51.58;75255.25;5002877;28;20045;-83
2022/06/16 09:40:41;;;;;;;1.85;0.85;;;;;;;-148.88;46.32;75245.09;5004373;28;19910;-82
2022/06/16 09:43:31;;;;;;;2.92;0.90;;;;;;;-148.88;50.28;75200.41;5001647;28;20033;-84
2022/06/16 09:46:02;;;;;;;1.70;0.80;;;;;;;-148.88;46.87;75204.47;4999323;28;20057;-83
2022/06/16 09:48:35;;;;;;;4.82;1.40;;;;;;;-148.88;47.61;75265.41;4999867;28;20109;-84
2022/06/16 09:51:14;;;;;;;2.65;1.20;;;;;;;-148.88;48.31;75218.69;5000012;28;20034;-83
2022/06/16 09:54:09;;;;;;;3.15;1.00;;;;;;;-148.88;48.12;75155.72;5000204;28;20084;-83
2022/06/16 09:56:48;;;;;;;4.03;1.02;;;;;;;-148.88;46.32;75169.94;4961269;28;20053;-83
2022/06/16 09:59:24;;;;;;;3.08;1.08;;;;;;;-148.88;46.56;75127.28;4998043;28;20026;-82
2022/06/16 10:01:55;;;;;;;2.80;1.05;;;;;;;-148.88;44.80;75127.28;4997494;28;20401;-83
2022/06/16 10:04:20;;;;;;;6.53;1.23;;;;;;;-148.88;46.10;75196.34;4997800;28;20512;-83
2022/06/16 10:07:01;;;;;;;3.38;1.17;;;;;;;-148.88;47.27;75214.63;4997069;28;20481;-83
2022/06/16 10:09:28;;;;;;;2.67;1.45;;;;;;;-148.88;45.96;75188.22;4997348;28;20030;-82
2022/06/16 10:11:58;;;;;;;3.08;1.10;;;;;;;-148.88;49.40;75115.09;4995683;28;20026;-81
2022/06/16 10:14:47;;;;;;;3.38;1.20;;;;;;;-148.88;47.17;75086.69;4997411;28;20026;-82
2022/06/16 10:17:20;;;;;;;5.97;1.52;;;;;;;-148.88;45.70;75111.03;4998972;28;20034;-83
2022/06/16 10:19:47;;;;;;;4.35;1.50;;;;;;;-148.88;44.66;75074.50;4994347;28;20034;-82
2022/06/16 10:22:16;;;;;;;4.25;1.60;;;;;;;-148.88;46.43;75076.53;4999198;28;20029;-83
2022/06/16 10:25:00;;;;;;;2.45;1.10;;;;;;;-148.88;46.22;75090.72;4999120;28;20022;-83
2022/06/16 10:27:32;;;;;;;4.75;1.27;;;;;;;-148.88;45.90;75042.00;4997115;28;20033;-82
2022/06/16 10:30:00;;;;;;;3.55;1.33;;;;;;;-148.88;44.99;75054.19;4998265;28;20030;-82
2022/06/16 10:32:40;;;;;;;4.38;1.58;;;;;;;-148.88;44.36;75082.63;4998457;28;20044;-83
2022/06/16 10:35:10;;;;;;;2.90;1.10;;;;;;;-148.88;44.07;75021.69;4998444;28;20038;-83
2022/06/16 10:37:40;;;;;;;3.35;1.38;;;;;;;-148.88;43.89;74989.19;4997738;28;20041;-82
2022/06/16 10:40:37;;;;;;;4.32;1.33;;;;;;;-148.88;45.12;74944.53;4998077;28;20030;-83
2022/06/16 10:43:15;;;;;;;1.92;1.17;;;;;;;-148.88;42.09;74924.22;4996679;28;20056;-83
2022/06/16 10:45:41;;;;;;;4.18;1.13;;;;;;;-148.88;42.23;74901.88;4999123;28;20026;-83
2022/06/16 10:48:11;;;;;;;2.40;1.20;;;;;;;-148.88;42.71;74958.72;4995573;28;20401;-83
2022/06/16 10:50:59;;;;;;;2.50;1.25;;;;;;;-148.88;41.78;74928.28;4997881;28;20045;-82
2022/06/16 10:53:30;;;;;;;3.25;1.00;;;;;;;-148.88;43.06;74970.91;4986349;28;20046;-83
2022/06/16 10:56:02;;;;;;;1.60;0.90;;;;;;;-148.88;42.18;74938.44;4997743;28;20030;-84
2022/06/16 10:58:31;;;;;;;3.53;1.20;;;;;;;-148.88;41.26;74928.28;4998184;28;20034;-83
2022/06/16 11:01:15;;;;;;;3.20;1.10;;;;;;;-148.88;40.67;74905.94;4996629;28;20065;-83
2022/06/16 11:03:43;;;;;;;2.70;1.13;;;;;;;-148.88;41.14;74855.16;4996096;28;20034;-83
2022/06/16 11:06:12;;;;;;;3.17;0.80;;;;;;;-148.88;37.96;74816.56;4996604;28;20026;-83
2022/06/16 11:08:42;;;;;;;2.55;1.05;;;;;;;-148.88;40.48;74780.03;4995225;28;20023;-83
2022/06/16 11:11:09;;;;;;;3.38;1.00;;;;;;;-148.88;39.63;74749.56;4996736;28;20076;-83
2022/06/16 11:13:47;;;;;;;2.75;1.20;;;;;;;-148.88;38.14;74802.38;4994711;28;20041;-83
2022/06/16 11:16:25;;;;;;;5.38;1.20;;;;;;;-148.88;37.60;74761.75;4995488;28;20022;-83
2022/06/16 11:18:53;;;;;;;2.78;1.13;;;;;;;-148.88;38.35;74786.13;4995444;28;20037;-83
2022/06/16 11:21:22;;;;;;;3.95;0.88;;;;;;;-148.88;38.22;74761.75;4995537;28;20523;-83
2022/06/16 11:23:51;;;;;;;2.95;1.20;;;;;;;-148.88;39.45;74861.25;4995557;28;20106;-83
2022/06/16 11:26:18;;;;;;;4.28;1.23;;;;;;;-148.88;40.51;74930.31;4995784;28;20365;-84
2022/06/16 11:28:52;;;;;;;3.17;1.38;;;;;;;-148.88;41.46;74851.09;4997739;28;20034;-83
2022/06/16 11:31:25;;;;;;;3.63;1.10;;;;;;;-148.88;39.26;74814.53;4996100;28;20023;-82
2022/06/16 11:34:15;;;;;;;3.37;1.43;;;;;;;-148.88;41.83;74741.44;4995952;28;20049;-83
2022/06/16 11:37:01;;;;;;;4.45;1.20;;;;;;;-148.88;39.64;74761.75;4996468;28;20516;-84
2022/06/16 11:39:32;;;;;;;4.15;1.25;;;;;;;-148.88;41.00;74761.75;4997021;28;20033;-83
2022/06/16 11:41:59;;;;;;;3.55;1.30;;;;;;;-148.88;36.57;74765.81;4994933;28;20054;-83
2022/06/16 11:44:48;;;;;;;1.98;1.20;;;;;;;-148.88;37.65;74745.50;4996568;28;20056;-83
2022/06/16 11:47:28;;;;;;;3.00;1.42;;;;;;;-148.88;37.18;74708.94;4996746;28;20096;-83
2022/06/16 11:50:13;;;;;;;3.80;1.30;;;;;;;-148.88;37.83;74784.09;4992901;28;20484;-83
2022/06/16 11:53:01;;;;;;;3.47;1.60;;;;;;;-148.88;39.73;74950.59;4995067;28;20030;-83
2022/06/16 11:55:36;;;;;;;4.10;1.60;;;;;;;-148.88;41.41;75009.50;4995929;28;20519;-83
2022/06/16 11:58:19;;;;;;;4.13;1.60;;;;;;;-148.88;40.95;74995.28;4995686;28;20034;-83